Calabogie, Canada
Current Conditions -  °F | °C
As of 6:00 AM on Monday 22 Dec 2014 (Local Time) from CYOW Reporting Station
Haze Haze  
Wind Chill:   Ceiling: 300
Heat Index: 16°   Visibility: 1.5mi
Dew Point: 16°   Wind: 9mph
Humidity: 100%   Direction: 110°ESE
Pressure: 30.39"   Gusts: NA
Location:  45.31°N, 76.72°W
Report Text: CYOW 221100Z 11008KT 1 1/2SM BR OVC003 M09/M09 A3039 RMK FG2ST6 SLP298
Loading
Personal Weather Stations






























Interactive Weather Map New forecast layout! Learn more

10-Day Weather Forecast

Advertisements
Track Severe Weather on mobile